Aviation Digital Data Service (ADDS)

Output produced by METARs form (0825 UTC 20 March 2019)
found at http://www.aviationweather.gov/metar/data/
 
METAR text: UTSS 200800Z 29006KT 260V320 9999 FEW066CB 14/06 Q1016 R09/70D NOSIG
Conditions at: UTSS (SAMARKAND , UZ) observed 0800 UTC 20 March 2019
Temperature: 14.0°C (57°F)
Dewpoint: 6.0°C (43°F) [RH = 58%]
Pressure (altimeter): 30.00 inches Hg (1016.0 mb)
Winds: from the WNW (290 degrees) at 7 MPH (6 knots; 3.1 m/s)
Visibility: 6 or more miles (10+ km)
Ceiling: at least 12,000 feet AGL
Clouds: few clouds at 6600 feet AGL
Weather: no significant weather observed at this time

METAR text: UTSS 200730Z 27004KT 9999 FEW066CB 14/06 Q1017 R09/70D NOSIG
Conditions at: UTSS (SAMARKAND , UZ) observed 0730 UTC 20 March 2019
Temperature: 14.0°C (57°F)
Dewpoint: 6.0°C (43°F) [RH = 58%]
Pressure (altimeter): 30.03 inches Hg (1017.0 mb)
Winds: from the W (270 degrees) at 5 MPH (4 knots; 2.1 m/s)
Visibility: 6 or more miles (10+ km)
Ceiling: at least 12,000 feet AGL
Clouds: few clouds at 6600 feet AGL
Weather: no significant weather observed at this time

METAR text: UTSS 200700Z 32004KT 250V040 9999 SCT067CB 13/06 Q1017 R09/70D NOSIG
Conditions at: UTSS (SAMARKAND , UZ) observed 0700 UTC 20 March 2019
Temperature: 13.0°C (55°F)
Dewpoint: 6.0°C (43°F) [RH = 62%]
Pressure (altimeter): 30.03 inches Hg (1017.0 mb)
Winds: from the NW (320 degrees) at 5 MPH (4 knots; 2.1 m/s)
Visibility: 6 or more miles (10+ km)
Ceiling: at least 12,000 feet AGL
Clouds: scattered clouds at 6700 feet AGL
Weather: no significant weather observed at this time

METAR text: UTSS 200630Z 34004KT 270V040 9999 SCT069CB 12/06 Q1017 R09/CLRD70 NOSIG
Conditions at: UTSS (SAMARKAND , UZ) observed 0630 UTC 20 March 2019
Temperature: 12.0°C (54°F)
Dewpoint: 6.0°C (43°F) [RH = 67%]
Pressure (altimeter): 30.03 inches Hg (1017.0 mb)
Winds: from the NNW (340 degrees) at 5 MPH (4 knots; 2.1 m/s)
Visibility: 6 or more miles (10+ km)
Ceiling: at least 12,000 feet AGL
Clouds: scattered clouds at 6900 feet AGL
Weather: no significant weather observed at this time

METAR text: UTSS 200600Z 02006KT 310V100 9999 SCT069CB 12/06 Q1017 R09/70D NOSIG
Conditions at: UTSS (SAMARKAND , UZ) observed 0600 UTC 20 March 2019
Temperature: 12.0°C (54°F)
Dewpoint: 6.0°C (43°F) [RH = 67%]
Pressure (altimeter): 30.03 inches Hg (1017.0 mb)
Winds: from the NNE (20 degrees) at 7 MPH (6 knots; 3.1 m/s)
Visibility: 6 or more miles (10+ km)
Ceiling: at least 12,000 feet AGL
Clouds: scattered clouds at 6900 feet AGL
Weather: no significant weather observed at this time

METAR text: UTSS 200530Z 35004KT 9999 SCT067CB 12/07 Q1017 R09/70D NOSIG
Conditions at: UTSS (SAMARKAND , UZ) observed 0530 UTC 20 March 2019
Temperature: 12.0°C (54°F)
Dewpoint: 7.0°C (45°F) [RH = 71%]
Pressure (altimeter): 30.03 inches Hg (1017.0 mb)
Winds: from the N (350 degrees) at 5 MPH (4 knots; 2.1 m/s)
Visibility: 6 or more miles (10+ km)
Ceiling: at least 12,000 feet AGL
Clouds: scattered clouds at 6700 feet AGL
Weather: no significant weather observed at this time

METAR text: UTSS 200500Z 34006KT 310V010 9999 SCT069CB 11/06 Q1017 R09/70D NOSIG
Conditions at: UTSS (SAMARKAND , UZ) observed 0500 UTC 20 March 2019
Temperature: 11.0°C (52°F)
Dewpoint: 6.0°C (43°F) [RH = 71%]
Pressure (altimeter): 30.03 inches Hg (1017.0 mb)
Winds: from the NNW (340 degrees) at 7 MPH (6 knots; 3.1 m/s)
Visibility: 6 or more miles (10+ km)
Ceiling: at least 12,000 feet AGL
Clouds: scattered clouds at 6900 feet AGL
Weather: no significant weather observed at this time

METAR text: UTSS 200430Z 02006KT 350V060 9999 SCT068CB 11/06 Q1017 R09/70D NOSIG
Conditions at: UTSS (SAMARKAND , UZ) observed 0430 UTC 20 March 2019
Temperature: 11.0°C (52°F)
Dewpoint: 6.0°C (43°F) [RH = 71%]
Pressure (altimeter): 30.03 inches Hg (1017.0 mb)
Winds: from the NNE (20 degrees) at 7 MPH (6 knots; 3.1 m/s)
Visibility: 6 or more miles (10+ km)
Ceiling: at least 12,000 feet AGL
Clouds: scattered clouds at 6800 feet AGL
Weather: no significant weather observed at this time

METAR text: UTSS 200400Z 36006KT 330V040 9999 SCT067CB 10/06 Q1017 R09/70D NOSIG
Conditions at: UTSS (SAMARKAND , UZ) observed 0400 UTC 20 March 2019
Temperature: 10.0°C (50°F)
Dewpoint: 6.0°C (43°F) [RH = 76%]
Pressure (altimeter): 30.03 inches Hg (1017.0 mb)
Winds: from the N (360 degrees) at 7 MPH (6 knots; 3.1 m/s)
Visibility: 6 or more miles (10+ km)
Ceiling: at least 12,000 feet AGL
Clouds: scattered clouds at 6700 feet AGL
Weather: no significant weather observed at this time

METAR text: UTSS 200330Z 01006KT 350V050 9999 SCT065CB 10/06 Q1017 R09/CLRD70 NOSIG
Conditions at: UTSS (SAMARKAND , UZ) observed 0330 UTC 20 March 2019
Temperature: 10.0°C (50°F)
Dewpoint: 6.0°C (43°F) [RH = 76%]
Pressure (altimeter): 30.03 inches Hg (1017.0 mb)
Winds: from the N (10 degrees) at 7 MPH (6 knots; 3.1 m/s)
Visibility: 6 or more miles (10+ km)
Ceiling: at least 12,000 feet AGL
Clouds: scattered clouds at 6500 feet AGL
Weather: no significant weather observed at this time

METAR text: UTSS 200300Z VRB02KT 9999 BKN063CB 09/05 Q1017 R09/70D NOSIG
Conditions at: UTSS (SAMARKAND , UZ) observed 0300 UTC 20 March 2019
Temperature: 9.0°C (48°F)
Dewpoint: 5.0°C (41°F) [RH = 76%]
Pressure (altimeter): 30.03 inches Hg (1017.0 mb)
Winds: variable direction winds at 2 MPH (2 knots; 1.0 m/s)
Visibility: 6 or more miles (10+ km)
Ceiling: 6300 feet AGL
Clouds: broken clouds at 6300 feet AGL
Weather: no significant weather observed at this time

METAR text: UTSS 200230Z 07004KT 030V100 9999 BKN066CB 09/05 Q1016 R09/CLRD70 NOSIG
Conditions at: UTSS (SAMARKAND , UZ) observed 0230 UTC 20 March 2019
Temperature: 9.0°C (48°F)
Dewpoint: 5.0°C (41°F) [RH = 76%]
Pressure (altimeter): 30.00 inches Hg (1016.0 mb)
Winds: from the ENE (70 degrees) at 5 MPH (4 knots; 2.1 m/s)
Visibility: 6 or more miles (10+ km)
Ceiling: 6600 feet AGL
Clouds: broken clouds at 6600 feet AGL
Weather: no significant weather observed at this time

METAR text: UTSS 200200Z 10004KT 060V120 9999 BKN066CB 08/05 Q1016 R09/CLRD70 NOSIG
Conditions at: UTSS (SAMARKAND , UZ) observed 0200 UTC 20 March 2019
Temperature: 8.0°C (46°F)
Dewpoint: 5.0°C (41°F) [RH = 81%]
Pressure (altimeter): 30.00 inches Hg (1016.0 mb)
Winds: from the E (100 degrees) at 5 MPH (4 knots; 2.1 m/s)
Visibility: 6 or more miles (10+ km)
Ceiling: 6600 feet AGL
Clouds: broken clouds at 6600 feet AGL
Weather: no significant weather observed at this time

METAR text: UTSS 200130Z 09004KT 9999 BKN063CB 08/05 Q1016 R09/70D NOSIG
Conditions at: UTSS (SAMARKAND , UZ) observed 0130 UTC 20 March 2019
Temperature: 8.0°C (46°F)
Dewpoint: 5.0°C (41°F) [RH = 81%]
Pressure (altimeter): 30.00 inches Hg (1016.0 mb)
Winds: from the E (90 degrees) at 5 MPH (4 knots; 2.1 m/s)
Visibility: 6 or more miles (10+ km)
Ceiling: 6300 feet AGL
Clouds: broken clouds at 6300 feet AGL
Weather: no significant weather observed at this time

METAR text: UTSS 200100Z 08004KT 6000 BKN064CB 08/05 Q1016 R09/70D NOSIG
Conditions at: UTSS (SAMARKAND , UZ) observed 0100 UTC 20 March 2019
Temperature: 8.0°C (46°F)
Dewpoint: 5.0°C (41°F) [RH = 81%]
Pressure (altimeter): 30.00 inches Hg (1016.0 mb)
Winds: from the E (80 degrees) at 5 MPH (4 knots; 2.1 m/s)
Visibility: 4 miles ( 6 km)
Ceiling: 6400 feet AGL
Clouds: broken clouds at 6400 feet AGL
Weather: no significant weather observed at this time

METAR text: UTSS 200030Z 10004KT 6000 BKN065CB 08/05 Q1015 R09/70D NOSIG
Conditions at: UTSS (SAMARKAND , UZ) observed 0030 UTC 20 March 2019
Temperature: 8.0°C (46°F)
Dewpoint: 5.0°C (41°F) [RH = 81%]
Pressure (altimeter): 29.97 inches Hg (1015.0 mb)
Winds: from the E (100 degrees) at 5 MPH (4 knots; 2.1 m/s)
Visibility: 4 miles ( 6 km)
Ceiling: 6500 feet AGL
Clouds: broken clouds at 6500 feet AGL
Weather: no significant weather observed at this time

METAR text: UTSS 200000Z 06006KT 6000 BKN061CB 08/06 Q1015 R27/70D NOSIG
Conditions at: UTSS (SAMARKAND , UZ) observed 0000 UTC 20 March 2019
Temperature: 8.0°C (46°F)
Dewpoint: 6.0°C (43°F) [RH = 87%]
Pressure (altimeter): 29.97 inches Hg (1015.0 mb)
Winds: from the ENE (60 degrees) at 7 MPH (6 knots; 3.1 m/s)
Visibility: 4 miles ( 6 km)
Ceiling: 6100 feet AGL
Clouds: broken clouds at 6100 feet AGL
Weather: no significant weather observed at this time

METAR text: UTSS 192330Z 09004KT 6000 BKN065CB 08/06 Q1015 R09/70D NOSIG
Conditions at: UTSS (SAMARKAND , UZ) observed 2330 UTC 19 March 2019
Temperature: 8.0°C (46°F)
Dewpoint: 6.0°C (43°F) [RH = 87%]
Pressure (altimeter): 29.97 inches Hg (1015.0 mb)
Winds: from the E (90 degrees) at 5 MPH (4 knots; 2.1 m/s)
Visibility: 4 miles ( 6 km)
Ceiling: 6500 feet AGL
Clouds: broken clouds at 6500 feet AGL
Weather: no significant weather observed at this time

METAR text: UTSS 192230Z 35006KT 6000 SCT063CB 09/06 Q1015 R09/70D NOSIG
Conditions at: UTSS (SAMARKAND , UZ) observed 2230 UTC 19 March 2019
Temperature: 9.0°C (48°F)
Dewpoint: 6.0°C (43°F) [RH = 81%]
Pressure (altimeter): 29.97 inches Hg (1015.0 mb)
Winds: from the N (350 degrees) at 7 MPH (6 knots; 3.1 m/s)
Visibility: 4 miles ( 6 km)
Ceiling: at least 12,000 feet AGL
Clouds: scattered clouds at 6300 feet AGL
Weather: no significant weather observed at this time

METAR text: UTSS 192200Z 24006KT 210V280 6000 BKN064CB 12/04 Q1015 R09/70D NOSIG
Conditions at: UTSS (SAMARKAND , UZ) observed 2200 UTC 19 March 2019
Temperature: 12.0°C (54°F)
Dewpoint: 4.0°C (39°F) [RH = 58%]
Pressure (altimeter): 29.97 inches Hg (1015.0 mb)
Winds: from the WSW (240 degrees) at 7 MPH (6 knots; 3.1 m/s)
Visibility: 4 miles ( 6 km)
Ceiling: 6400 feet AGL
Clouds: broken clouds at 6400 feet AGL
Weather: no significant weather observed at this time

METAR text: UTSS 192130Z 00000KT 6000 BKN065CB 08/06 Q1015 R09/70D NOSIG
Conditions at: UTSS (SAMARKAND , UZ) observed 2130 UTC 19 March 2019
Temperature: 8.0°C (46°F)
Dewpoint: 6.0°C (43°F) [RH = 87%]
Pressure (altimeter): 29.97 inches Hg (1015.0 mb)
Winds: calm
Visibility: 4 miles ( 6 km)
Ceiling: 6500 feet AGL
Clouds: broken clouds at 6500 feet AGL
Weather: no significant weather observed at this time

METAR text: UTSS 192100Z VRB02KT 6000 SCT063CB 09/06 Q1015 R09/70D NOSIG
Conditions at: UTSS (SAMARKAND , UZ) observed 2100 UTC 19 March 2019
Temperature: 9.0°C (48°F)
Dewpoint: 6.0°C (43°F) [RH = 81%]
Pressure (altimeter): 29.97 inches Hg (1015.0 mb)
Winds: variable direction winds at 2 MPH (2 knots; 1.0 m/s)
Visibility: 4 miles ( 6 km)
Ceiling: at least 12,000 feet AGL
Clouds: scattered clouds at 6300 feet AGL
Weather: no significant weather observed at this time

METAR text: UTSS 192030Z VRB02KT 6000 FEW061CB 10/05 Q1015 R27/70D NOSIG
Conditions at: UTSS (SAMARKAND , UZ) observed 2030 UTC 19 March 2019
Temperature: 10.0°C (50°F)
Dewpoint: 5.0°C (41°F) [RH = 71%]
Pressure (altimeter): 29.97 inches Hg (1015.0 mb)
Winds: variable direction winds at 2 MPH (2 knots; 1.0 m/s)
Visibility: 4 miles ( 6 km)
Ceiling: at least 12,000 feet AGL
Clouds: few clouds at 6100 feet AGL
Weather: no significant weather observed at this time

METAR text: UTSS 192000Z 18006KT 6000 FEW062CB 10/05 Q1015 R09/70D NOSIG
Conditions at: UTSS (SAMARKAND , UZ) observed 2000 UTC 19 March 2019
Temperature: 10.0°C (50°F)
Dewpoint: 5.0°C (41°F) [RH = 71%]
Pressure (altimeter): 29.97 inches Hg (1015.0 mb)
Winds: from the S (180 degrees) at 7 MPH (6 knots; 3.1 m/s)
Visibility: 4 miles ( 6 km)
Ceiling: at least 12,000 feet AGL
Clouds: few clouds at 6200 feet AGL
Weather: no significant weather observed at this time

METAR text: UTSS 191930Z 18006KT 6000 FEW065CB 10/05 Q1015 R09/70D NOSIG
Conditions at: UTSS (SAMARKAND , UZ) observed 1930 UTC 19 March 2019
Temperature: 10.0°C (50°F)
Dewpoint: 5.0°C (41°F) [RH = 71%]
Pressure (altimeter): 29.97 inches Hg (1015.0 mb)
Winds: from the S (180 degrees) at 7 MPH (6 knots; 3.1 m/s)
Visibility: 4 miles ( 6 km)
Ceiling: at least 12,000 feet AGL
Clouds: few clouds at 6500 feet AGL
Weather: no significant weather observed at this time

METAR text: UTSS 191900Z 15006KT 6000 NSC 10/05 Q1015 R09/70D NOSIG
Conditions at: UTSS (SAMARKAND , UZ) observed 1900 UTC 19 March 2019
Temperature: 10.0°C (50°F)
Dewpoint: 5.0°C (41°F) [RH = 71%]
Pressure (altimeter): 29.97 inches Hg (1015.0 mb)
Winds: from the SSE (150 degrees) at 7 MPH (6 knots; 3.1 m/s)
Visibility: 4 miles ( 6 km)
Ceiling: at least 12,000 feet AGL
Clouds: sky clear below 12,000 feet AGL
Weather: no significant weather observed at this time

METAR text: UTSS 191830Z VRB02KT 6000 NSC 10/06 Q1015 R09/70D NOSIG
Conditions at: UTSS (SAMARKAND , UZ) observed 1830 UTC 19 March 2019
Temperature: 10.0°C (50°F)
Dewpoint: 6.0°C (43°F) [RH = 76%]
Pressure (altimeter): 29.97 inches Hg (1015.0 mb)
Winds: variable direction winds at 2 MPH (2 knots; 1.0 m/s)
Visibility: 4 miles ( 6 km)
Ceiling: at least 12,000 feet AGL
Clouds: sky clear below 12,000 feet AGL
Weather: no significant weather observed at this time

METAR text: UTSS 191800Z VRB02KT 6000 NSC 10/05 Q1015 R09/70D NOSIG
Conditions at: UTSS (SAMARKAND , UZ) observed 1800 UTC 19 March 2019
Temperature: 10.0°C (50°F)
Dewpoint: 5.0°C (41°F) [RH = 71%]
Pressure (altimeter): 29.97 inches Hg (1015.0 mb)
Winds: variable direction winds at 2 MPH (2 knots; 1.0 m/s)
Visibility: 4 miles ( 6 km)
Ceiling: at least 12,000 feet AGL
Clouds: sky clear below 12,000 feet AGL
Weather: no significant weather observed at this time

METAR text: UTSS 191730Z 15006KT 6000 NSC 10/06 Q1015 R09/70D NOSIG
Conditions at: UTSS (SAMARKAND , UZ) observed 1730 UTC 19 March 2019
Temperature: 10.0°C (50°F)
Dewpoint: 6.0°C (43°F) [RH = 76%]
Pressure (altimeter): 29.97 inches Hg (1015.0 mb)
Winds: from the SSE (150 degrees) at 7 MPH (6 knots; 3.1 m/s)
Visibility: 4 miles ( 6 km)
Ceiling: at least 12,000 feet AGL
Clouds: sky clear below 12,000 feet AGL
Weather: no significant weather observed at this time

METAR text: UTSS 191700Z 16004KT 6000 NSC 11/06 Q1015 R09/CLRD70 NOSIG
Conditions at: UTSS (SAMARKAND , UZ) observed 1700 UTC 19 March 2019
Temperature: 11.0°C (52°F)
Dewpoint: 6.0°C (43°F) [RH = 71%]
Pressure (altimeter): 29.97 inches Hg (1015.0 mb)
Winds: from the SSE (160 degrees) at 5 MPH (4 knots; 2.1 m/s)
Visibility: 4 miles ( 6 km)
Ceiling: at least 12,000 feet AGL
Clouds: sky clear below 12,000 feet AGL
Weather: no significant weather observed at this time

METAR text: UTSS 191630Z 16006KT 6000 NSC 11/06 Q1015 R09/70D NOSIG
Conditions at: UTSS (SAMARKAND , UZ) observed 1630 UTC 19 March 2019
Temperature: 11.0°C (52°F)
Dewpoint: 6.0°C (43°F) [RH = 71%]
Pressure (altimeter): 29.97 inches Hg (1015.0 mb)
Winds: from the SSE (160 degrees) at 7 MPH (6 knots; 3.1 m/s)
Visibility: 4 miles ( 6 km)
Ceiling: at least 12,000 feet AGL
Clouds: sky clear below 12,000 feet AGL
Weather: no significant weather observed at this time

METAR text: UTSS 191600Z 16006KT 6000 NSC 11/06 Q1015 R09/70D NOSIG
Conditions at: UTSS (SAMARKAND , UZ) observed 1600 UTC 19 March 2019
Temperature: 11.0°C (52°F)
Dewpoint: 6.0°C (43°F) [RH = 71%]
Pressure (altimeter): 29.97 inches Hg (1015.0 mb)
Winds: from the SSE (160 degrees) at 7 MPH (6 knots; 3.1 m/s)
Visibility: 4 miles ( 6 km)
Ceiling: at least 12,000 feet AGL
Clouds: sky clear below 12,000 feet AGL
Weather: no significant weather observed at this time

METAR text: UTSS 191530Z 15006KT 6000 NSC 11/06 Q1015 R09/70D NOSIG
Conditions at: UTSS (SAMARKAND , UZ) observed 1530 UTC 19 March 2019
Temperature: 11.0°C (52°F)
Dewpoint: 6.0°C (43°F) [RH = 71%]
Pressure (altimeter): 29.97 inches Hg (1015.0 mb)
Winds: from the SSE (150 degrees) at 7 MPH (6 knots; 3.1 m/s)
Visibility: 4 miles ( 6 km)
Ceiling: at least 12,000 feet AGL
Clouds: sky clear below 12,000 feet AGL
Weather: no significant weather observed at this time

METAR text: UTSS 191500Z 13004KT 6000 NSC 11/06 Q1015 R09/70D NOSIG
Conditions at: UTSS (SAMARKAND , UZ) observed 1500 UTC 19 March 2019
Temperature: 11.0°C (52°F)
Dewpoint: 6.0°C (43°F) [RH = 71%]
Pressure (altimeter): 29.97 inches Hg (1015.0 mb)
Winds: from the SE (130 degrees) at 5 MPH (4 knots; 2.1 m/s)
Visibility: 4 miles ( 6 km)
Ceiling: at least 12,000 feet AGL
Clouds: sky clear below 12,000 feet AGL
Weather: no significant weather observed at this time

METAR text: UTSS 191430Z 10004KT 6000 FEW064CB 11/05 Q1014 R27/70D NOSIG
Conditions at: UTSS (SAMARKAND , UZ) observed 1430 UTC 19 March 2019
Temperature: 11.0°C (52°F)
Dewpoint: 5.0°C (41°F) [RH = 66%]
Pressure (altimeter): 29.94 inches Hg (1014.0 mb)
Winds: from the E (100 degrees) at 5 MPH (4 knots; 2.1 m/s)
Visibility: 4 miles ( 6 km)
Ceiling: at least 12,000 feet AGL
Clouds: few clouds at 6400 feet AGL
Weather: no significant weather observed at this time

METAR text: UTSS 191400Z 05004KT 9999 SCT062CB 11/06 Q1014 R27/70D NOSIG
Conditions at: UTSS (SAMARKAND , UZ) observed 1400 UTC 19 March 2019
Temperature: 11.0°C (52°F)
Dewpoint: 6.0°C (43°F) [RH = 71%]
Pressure (altimeter): 29.94 inches Hg (1014.0 mb)
Winds: from the NE (50 degrees) at 5 MPH (4 knots; 2.1 m/s)
Visibility: 6 or more miles (10+ km)
Ceiling: at least 12,000 feet AGL
Clouds: scattered clouds at 6200 feet AGL
Weather: no significant weather observed at this time

METAR text: UTSS 191330Z 00000KT 9999 SCT061CB 13/06 Q1014 R09/70D NOSIG
Conditions at: UTSS (SAMARKAND , UZ) observed 1330 UTC 19 March 2019
Temperature: 13.0°C (55°F)
Dewpoint: 6.0°C (43°F) [RH = 62%]
Pressure (altimeter): 29.94 inches Hg (1014.0 mb)
Winds: calm
Visibility: 6 or more miles (10+ km)
Ceiling: at least 12,000 feet AGL
Clouds: scattered clouds at 6100 feet AGL
Weather: no significant weather observed at this time

METAR text: UTSS 191300Z VRB02KT 9999 BKN060CB 13/06 Q1014 R09/70D NOSIG
Conditions at: UTSS (SAMARKAND , UZ) observed 1300 UTC 19 March 2019
Temperature: 13.0°C (55°F)
Dewpoint: 6.0°C (43°F) [RH = 62%]
Pressure (altimeter): 29.94 inches Hg (1014.0 mb)
Winds: variable direction winds at 2 MPH (2 knots; 1.0 m/s)
Visibility: 6 or more miles (10+ km)
Ceiling: 6000 feet AGL
Clouds: broken clouds at 6000 feet AGL
Weather: no significant weather observed at this time

METAR text: UTSS 191230Z VRB02KT 9999 BKN059CB 13/06 Q1014 R09/70D NOSIG
Conditions at: UTSS (SAMARKAND , UZ) observed 1230 UTC 19 March 2019
Temperature: 13.0°C (55°F)
Dewpoint: 6.0°C (43°F) [RH = 62%]
Pressure (altimeter): 29.94 inches Hg (1014.0 mb)
Winds: variable direction winds at 2 MPH (2 knots; 1.0 m/s)
Visibility: 6 or more miles (10+ km)
Ceiling: 5900 feet AGL
Clouds: broken clouds at 5900 feet AGL
Weather: no significant weather observed at this time

METAR text: UTSS 191200Z VRB02KT 9999 BKN059CB 13/05 Q1013 R09/70D NOSIG
Conditions at: UTSS (SAMARKAND , UZ) observed 1200 UTC 19 March 2019
Temperature: 13.0°C (55°F)
Dewpoint: 5.0°C (41°F) [RH = 58%]
Pressure (altimeter): 29.91 inches Hg (1013.0 mb)
Winds: variable direction winds at 2 MPH (2 knots; 1.0 m/s)
Visibility: 6 or more miles (10+ km)
Ceiling: 5900 feet AGL
Clouds: broken clouds at 5900 feet AGL
Weather: no significant weather observed at this time

METAR text: UTSS 191130Z 20002KT 9999 BKN058CB 13/06 Q1013 R27/19//65 NOSIG
Conditions at: UTSS (SAMARKAND , UZ) observed 1130 UTC 19 March 2019
Temperature: 13.0°C (55°F)
Dewpoint: 6.0°C (43°F) [RH = 62%]
Pressure (altimeter): 29.91 inches Hg (1013.0 mb)
Winds: from the SSW (200 degrees) at 2 MPH (2 knots; 1.0 m/s)
Visibility: 6 or more miles (10+ km)
Ceiling: 5800 feet AGL
Clouds: broken clouds at 5800 feet AGL
Weather: no significant weather observed at this time

METAR text: UTSS 191100Z 22004KT 190V250 9999 BKN056CB 13/05 Q1013 R27/19//65 NOSIG
Conditions at: UTSS (SAMARKAND , UZ) observed 1100 UTC 19 March 2019
Temperature: 13.0°C (55°F)
Dewpoint: 5.0°C (41°F) [RH = 58%]
Pressure (altimeter): 29.91 inches Hg (1013.0 mb)
Winds: from the SW (220 degrees) at 5 MPH (4 knots; 2.1 m/s)
Visibility: 6 or more miles (10+ km)
Ceiling: 5600 feet AGL
Clouds: broken clouds at 5600 feet AGL
Weather: no significant weather observed at this time

METAR text: UTSS 191030Z 24008KT 220V280 9999 -SHRA OVC057CB 13/05 Q1013 R27/70D NOSIG
Conditions at: UTSS (SAMARKAND , UZ) observed 1030 UTC 19 March 2019
Temperature: 13.0°C (55°F)
Dewpoint: 5.0°C (41°F) [RH = 58%]
Pressure (altimeter): 29.91 inches Hg (1013.0 mb)
Winds: from the WSW (240 degrees) at 9 MPH (8 knots; 4.1 m/s)
Visibility: 6 or more miles (10+ km)
Ceiling: 5700 feet AGL
Clouds: overcast cloud deck at 5700 feet AGL
Weather: -SHRA  (light rain showers)

METAR text: UTSS 191000Z 22008KT 190V250 9999 BKN058CB 13/04 Q1013 R27/70D NOSIG
Conditions at: UTSS (SAMARKAND , UZ) observed 1000 UTC 19 March 2019
Temperature: 13.0°C (55°F)
Dewpoint: 4.0°C (39°F) [RH = 54%]
Pressure (altimeter): 29.91 inches Hg (1013.0 mb)
Winds: from the SW (220 degrees) at 9 MPH (8 knots; 4.1 m/s)
Visibility: 6 or more miles (10+ km)
Ceiling: 5800 feet AGL
Clouds: broken clouds at 5800 feet AGL
Weather: no significant weather observed at this time

METAR text: UTSS 190930Z 22008KT 9999 BKN059CB 14/04 Q1013 R27/70D NOSIG
Conditions at: UTSS (SAMARKAND , UZ) observed 0930 UTC 19 March 2019
Temperature: 14.0°C (57°F)
Dewpoint: 4.0°C (39°F) [RH = 51%]
Pressure (altimeter): 29.91 inches Hg (1013.0 mb)
Winds: from the SW (220 degrees) at 9 MPH (8 knots; 4.1 m/s)
Visibility: 6 or more miles (10+ km)
Ceiling: 5900 feet AGL
Clouds: broken clouds at 5900 feet AGL
Weather: no significant weather observed at this time

METAR text: UTSS 190900Z 23010KT 200V260 9999 BKN059CB 13/04 Q1013 R27/70D NOSIG
Conditions at: UTSS (SAMARKAND , UZ) observed 0900 UTC 19 March 2019
Temperature: 13.0°C (55°F)
Dewpoint: 4.0°C (39°F) [RH = 54%]
Pressure (altimeter): 29.91 inches Hg (1013.0 mb)
Winds: from the SW (230 degrees) at 12 MPH (10 knots; 5.1 m/s)
Visibility: 6 or more miles (10+ km)
Ceiling: 5900 feet AGL
Clouds: broken clouds at 5900 feet AGL
Weather: no significant weather observed at this time

METAR text: UTSS 190830Z 23010KT 200V260 9999 BKN060CB 13/04 Q1013 R27/70D NOSIG
Conditions at: UTSS (SAMARKAND , UZ) observed 0830 UTC 19 March 2019
Temperature: 13.0°C (55°F)
Dewpoint: 4.0°C (39°F) [RH = 54%]
Pressure (altimeter): 29.91 inches Hg (1013.0 mb)
Winds: from the SW (230 degrees) at 12 MPH (10 knots; 5.1 m/s)
Visibility: 6 or more miles (10+ km)
Ceiling: 6000 feet AGL
Clouds: broken clouds at 6000 feet AGL
Weather: no significant weather observed at this time

METAR text: UTSS 190800Z 25012KT 9999 BKN061CB 13/04 Q1013 R27/70D NOSIG
Conditions at: UTSS (SAMARKAND , UZ) observed 0800 UTC 19 March 2019
Temperature: 13.0°C (55°F)
Dewpoint: 4.0°C (39°F) [RH = 54%]
Pressure (altimeter): 29.91 inches Hg (1013.0 mb)
Winds: from the WSW (250 degrees) at 14 MPH (12 knots; 6.2 m/s)
Visibility: 6 or more miles (10+ km)
Ceiling: 6100 feet AGL
Clouds: broken clouds at 6100 feet AGL
Weather: no significant weather observed at this time

METAR text: UTSS 190730Z 23012KT 200V260 9999 BKN062CB 13/04 Q1013 R09/70D NOSIG
Conditions at: UTSS (SAMARKAND , UZ) observed 0730 UTC 19 March 2019
Temperature: 13.0°C (55°F)
Dewpoint: 4.0°C (39°F) [RH = 54%]
Pressure (altimeter): 29.91 inches Hg (1013.0 mb)
Winds: from the SW (230 degrees) at 14 MPH (12 knots; 6.2 m/s)
Visibility: 6 or more miles (10+ km)
Ceiling: 6200 feet AGL
Clouds: broken clouds at 6200 feet AGL
Weather: no significant weather observed at this time

METAR text: UTSS 190700Z 24008KT 9999 BKN062CB 13/04 Q1013 R09/70D NOSIG
Conditions at: UTSS (SAMARKAND , UZ) observed 0700 UTC 19 March 2019
Temperature: 13.0°C (55°F)
Dewpoint: 4.0°C (39°F) [RH = 54%]
Pressure (altimeter): 29.91 inches Hg (1013.0 mb)
Winds: from the WSW (240 degrees) at 9 MPH (8 knots; 4.1 m/s)
Visibility: 6 or more miles (10+ km)
Ceiling: 6200 feet AGL
Clouds: broken clouds at 6200 feet AGL
Weather: no significant weather observed at this time

METAR text: UTSS 190630Z 22010KT 190V250 9999 BKN064CB 14/04 Q1013 R09/70D NOSIG
Conditions at: UTSS (SAMARKAND , UZ) observed 0630 UTC 19 March 2019
Temperature: 14.0°C (57°F)
Dewpoint: 4.0°C (39°F) [RH = 51%]
Pressure (altimeter): 29.91 inches Hg (1013.0 mb)
Winds: from the SW (220 degrees) at 12 MPH (10 knots; 5.1 m/s)
Visibility: 6 or more miles (10+ km)
Ceiling: 6400 feet AGL
Clouds: broken clouds at 6400 feet AGL
Weather: no significant weather observed at this time

METAR text: UTSS 190600Z 16004KT 9999 BKN064CB 14/04 Q1012 R09/70D NOSIG
Conditions at: UTSS (SAMARKAND , UZ) observed 0600 UTC 19 March 2019
Temperature: 14.0°C (57°F)
Dewpoint: 4.0°C (39°F) [RH = 51%]
Pressure (altimeter): 29.88 inches Hg (1012.0 mb)
Winds: from the SSE (160 degrees) at 5 MPH (4 knots; 2.1 m/s)
Visibility: 6 or more miles (10+ km)
Ceiling: 6400 feet AGL
Clouds: broken clouds at 6400 feet AGL
Weather: no significant weather observed at this time

METAR text: UTSS 190530Z 30002KT 9999 BKN065CB 13/05 Q1012 R09/70D NOSIG
Conditions at: UTSS (SAMARKAND , UZ) observed 0530 UTC 19 March 2019
Temperature: 13.0°C (55°F)
Dewpoint: 5.0°C (41°F) [RH = 58%]
Pressure (altimeter): 29.88 inches Hg (1012.0 mb)
Winds: from the WNW (300 degrees) at 2 MPH (2 knots; 1.0 m/s)
Visibility: 6 or more miles (10+ km)
Ceiling: 6500 feet AGL
Clouds: broken clouds at 6500 feet AGL
Weather: no significant weather observed at this time

METAR text: UTSS 190500Z 29004KT 9999 SCT066CB 12/05 Q1012 R27/70D NOSIG
Conditions at: UTSS (SAMARKAND , UZ) observed 0500 UTC 19 March 2019
Temperature: 12.0°C (54°F)
Dewpoint: 5.0°C (41°F) [RH = 62%]
Pressure (altimeter): 29.88 inches Hg (1012.0 mb)
Winds: from the WNW (290 degrees) at 5 MPH (4 knots; 2.1 m/s)
Visibility: 6 or more miles (10+ km)
Ceiling: at least 12,000 feet AGL
Clouds: scattered clouds at 6600 feet AGL
Weather: no significant weather observed at this time

METAR text: UTSS 190430Z 29006KT 260V330 9999 FEW066CB 12/05 Q1012 R27/70D NOSIG
Conditions at: UTSS (SAMARKAND , UZ) observed 0430 UTC 19 March 2019
Temperature: 12.0°C (54°F)
Dewpoint: 5.0°C (41°F) [RH = 62%]
Pressure (altimeter): 29.88 inches Hg (1012.0 mb)
Winds: from the WNW (290 degrees) at 7 MPH (6 knots; 3.1 m/s)
Visibility: 6 or more miles (10+ km)
Ceiling: at least 12,000 feet AGL
Clouds: few clouds at 6600 feet AGL
Weather: no significant weather observed at this time

METAR text: UTSS 190400Z VRB02KT 9999 FEW068CB 11/07 Q1011 R09/70D NOSIG
Conditions at: UTSS (SAMARKAND , UZ) observed 0400 UTC 19 March 2019
Temperature: 11.0°C (52°F)
Dewpoint: 7.0°C (45°F) [RH = 76%]
Pressure (altimeter): 29.85 inches Hg (1011.0 mb)
Winds: variable direction winds at 2 MPH (2 knots; 1.0 m/s)
Visibility: 6 or more miles (10+ km)
Ceiling: at least 12,000 feet AGL
Clouds: few clouds at 6800 feet AGL
Weather: no significant weather observed at this time

METAR text: UTSS 190330Z 00000KT 9999 FEW067CB 11/06 Q1011 R09/70D NOSIG
Conditions at: UTSS (SAMARKAND , UZ) observed 0330 UTC 19 March 2019
Temperature: 11.0°C (52°F)
Dewpoint: 6.0°C (43°F) [RH = 71%]
Pressure (altimeter): 29.85 inches Hg (1011.0 mb)
Winds: calm
Visibility: 6 or more miles (10+ km)
Ceiling: at least 12,000 feet AGL
Clouds: few clouds at 6700 feet AGL
Weather: no significant weather observed at this time

METAR text: UTSS 190300Z 00000KT 9999 FEW068CB 11/06 Q1010 R09/70D NOSIG
Conditions at: UTSS (SAMARKAND , UZ) observed 0300 UTC 19 March 2019
Temperature: 11.0°C (52°F)
Dewpoint: 6.0°C (43°F) [RH = 71%]
Pressure (altimeter): 29.82 inches Hg (1010.0 mb)
Winds: calm
Visibility: 6 or more miles (10+ km)
Ceiling: at least 12,000 feet AGL
Clouds: few clouds at 6800 feet AGL
Weather: no significant weather observed at this time

METAR text: UTSS 190230Z 02002KT 9999 FEW068CB 11/06 Q1010 R09/70D NOSIG
Conditions at: UTSS (SAMARKAND , UZ) observed 0230 UTC 19 March 2019
Temperature: 11.0°C (52°F)
Dewpoint: 6.0°C (43°F) [RH = 71%]
Pressure (altimeter): 29.82 inches Hg (1010.0 mb)
Winds: from the NNE (20 degrees) at 2 MPH (2 knots; 1.0 m/s)
Visibility: 6 or more miles (10+ km)
Ceiling: at least 12,000 feet AGL
Clouds: few clouds at 6800 feet AGL
Weather: no significant weather observed at this time

METAR text: UTSS 190200Z 16006KT 9999 SCT067CB 12/05 Q1009 R09/CLRD70 NOSIG
Conditions at: UTSS (SAMARKAND , UZ) observed 0200 UTC 19 March 2019
Temperature: 12.0°C (54°F)
Dewpoint: 5.0°C (41°F) [RH = 62%]
Pressure (altimeter): 29.79 inches Hg (1009.0 mb)
Winds: from the SSE (160 degrees) at 7 MPH (6 knots; 3.1 m/s)
Visibility: 6 or more miles (10+ km)
Ceiling: at least 12,000 feet AGL
Clouds: scattered clouds at 6700 feet AGL
Weather: no significant weather observed at this time

METAR text: UTSS 190130Z 00000KT 6000 BKN065CB 11/05 Q1009 R09/70D NOSIG
Conditions at: UTSS (SAMARKAND , UZ) observed 0130 UTC 19 March 2019
Temperature: 11.0°C (52°F)
Dewpoint: 5.0°C (41°F) [RH = 66%]
Pressure (altimeter): 29.79 inches Hg (1009.0 mb)
Winds: calm
Visibility: 4 miles ( 6 km)
Ceiling: 6500 feet AGL
Clouds: broken clouds at 6500 feet AGL
Weather: no significant weather observed at this time

METAR text: UTSS 190100Z 12004KT 6000 BKN065CB 11/05 Q1009 R09/70D NOSIG
Conditions at: UTSS (SAMARKAND , UZ) observed 0100 UTC 19 March 2019
Temperature: 11.0°C (52°F)
Dewpoint: 5.0°C (41°F) [RH = 66%]
Pressure (altimeter): 29.79 inches Hg (1009.0 mb)
Winds: from the ESE (120 degrees) at 5 MPH (4 knots; 2.1 m/s)
Visibility: 4 miles ( 6 km)
Ceiling: 6500 feet AGL
Clouds: broken clouds at 6500 feet AGL
Weather: no significant weather observed at this time

METAR text: UTSS 190030Z VRB02KT 6000 BKN066CB 10/06 Q1008 R09/70D NOSIG
Conditions at: UTSS (SAMARKAND , UZ) observed 0030 UTC 19 March 2019
Temperature: 10.0°C (50°F)
Dewpoint: 6.0°C (43°F) [RH = 76%]
Pressure (altimeter): 29.76 inches Hg (1008.0 mb)
Winds: variable direction winds at 2 MPH (2 knots; 1.0 m/s)
Visibility: 4 miles ( 6 km)
Ceiling: 6600 feet AGL
Clouds: broken clouds at 6600 feet AGL
Weather: no significant weather observed at this time

METAR text: UTSS 190000Z 12004KT 6000 BKN067CB 11/05 Q1008 R09/70D NOSIG
Conditions at: UTSS (SAMARKAND , UZ) observed 0000 UTC 19 March 2019
Temperature: 11.0°C (52°F)
Dewpoint: 5.0°C (41°F) [RH = 66%]
Pressure (altimeter): 29.76 inches Hg (1008.0 mb)
Winds: from the ESE (120 degrees) at 5 MPH (4 knots; 2.1 m/s)
Visibility: 4 miles ( 6 km)
Ceiling: 6700 feet AGL
Clouds: broken clouds at 6700 feet AGL
Weather: no significant weather observed at this time

METAR text: UTSS 182330Z 10006KT 6000 BKN067CB 10/06 Q1008 R09/70D NOSIG
Conditions at: UTSS (SAMARKAND , UZ) observed 2330 UTC 18 March 2019
Temperature: 10.0°C (50°F)
Dewpoint: 6.0°C (43°F) [RH = 76%]
Pressure (altimeter): 29.76 inches Hg (1008.0 mb)
Winds: from the E (100 degrees) at 7 MPH (6 knots; 3.1 m/s)
Visibility: 4 miles ( 6 km)
Ceiling: 6700 feet AGL
Clouds: broken clouds at 6700 feet AGL
Weather: no significant weather observed at this time

METAR text: UTSS 182300Z 09006KT 6000 BKN067CB 10/07 Q1008 R09/70D NOSIG
Conditions at: UTSS (SAMARKAND , UZ) observed 2300 UTC 18 March 2019
Temperature: 10.0°C (50°F)
Dewpoint: 7.0°C (45°F) [RH = 82%]
Pressure (altimeter): 29.76 inches Hg (1008.0 mb)
Winds: from the E (90 degrees) at 7 MPH (6 knots; 3.1 m/s)
Visibility: 4 miles ( 6 km)
Ceiling: 6700 feet AGL
Clouds: broken clouds at 6700 feet AGL
Weather: no significant weather observed at this time

METAR text: UTSS 182230Z 07006KT 030V110 6000 BKN064CB 11/07 Q1008 R27/70D NOSIG
Conditions at: UTSS (SAMARKAND , UZ) observed 2230 UTC 18 March 2019
Temperature: 11.0°C (52°F)
Dewpoint: 7.0°C (45°F) [RH = 76%]
Pressure (altimeter): 29.76 inches Hg (1008.0 mb)
Winds: from the ENE (70 degrees) at 7 MPH (6 knots; 3.1 m/s)
Visibility: 4 miles ( 6 km)
Ceiling: 6400 feet AGL
Clouds: broken clouds at 6400 feet AGL
Weather: no significant weather observed at this time

METAR text: UTSS 182200Z 06004KT 010V100 6000 BKN066CB 10/06 Q1008 R27/70D NOSIG
Conditions at: UTSS (SAMARKAND , UZ) observed 2200 UTC 18 March 2019
Temperature: 10.0°C (50°F)
Dewpoint: 6.0°C (43°F) [RH = 76%]
Pressure (altimeter): 29.76 inches Hg (1008.0 mb)
Winds: from the ENE (60 degrees) at 5 MPH (4 knots; 2.1 m/s)
Visibility: 4 miles ( 6 km)
Ceiling: 6600 feet AGL
Clouds: broken clouds at 6600 feet AGL
Weather: no significant weather observed at this time

METAR text: UTSS 182130Z VRB02KT 6000 BKN065CB 12/06 Q1008 R27/70D NOSIG
Conditions at: UTSS (SAMARKAND , UZ) observed 2130 UTC 18 March 2019
Temperature: 12.0°C (54°F)
Dewpoint: 6.0°C (43°F) [RH = 67%]
Pressure (altimeter): 29.76 inches Hg (1008.0 mb)
Winds: variable direction winds at 2 MPH (2 knots; 1.0 m/s)
Visibility: 4 miles ( 6 km)
Ceiling: 6500 feet AGL
Clouds: broken clouds at 6500 feet AGL
Weather: no significant weather observed at this time

METAR text: UTSS 182100Z 06004KT 020V090 6000 BKN064CB 11/07 Q1008 R27/70D NOSIG
Conditions at: UTSS (SAMARKAND , UZ) observed 2100 UTC 18 March 2019
Temperature: 11.0°C (52°F)
Dewpoint: 7.0°C (45°F) [RH = 76%]
Pressure (altimeter): 29.76 inches Hg (1008.0 mb)
Winds: from the ENE (60 degrees) at 5 MPH (4 knots; 2.1 m/s)
Visibility: 4 miles ( 6 km)
Ceiling: 6400 feet AGL
Clouds: broken clouds at 6400 feet AGL
Weather: no significant weather observed at this time

METAR text: UTSS 182030Z VRB02KT 6000 -SHRA OVC060CB 12/06 Q1009 R27/70D NOSIG
Conditions at: UTSS (SAMARKAND , UZ) observed 2030 UTC 18 March 2019
Temperature: 12.0°C (54°F)
Dewpoint: 6.0°C (43°F) [RH = 67%]
Pressure (altimeter): 29.79 inches Hg (1009.0 mb)
Winds: variable direction winds at 2 MPH (2 knots; 1.0 m/s)
Visibility: 4 miles ( 6 km)
Ceiling: 6000 feet AGL
Clouds: overcast cloud deck at 6000 feet AGL
Weather: -SHRA  (light rain showers)

Forecast for: UTSS (SAMARKAND , UZ)
Text: TAF UTSS 200500Z 2006/2106 27010G20KT 9999 SCT066CB BKN100
Forecast period: 0600 UTC 20 March 2019 to 0600 UTC 21 March 2019
Forecast type: FROM: standard forecast or significant change
Winds: from the W (270 degrees) at 12 MPH (10 knots; 5.1 m/s)
gusting to 23 MPH (20 knots; 10.3 m/s)
Visibility: 6 or more miles 10+ km)
Ceiling: 10000 feet AGL
Clouds: scattered clouds at 6600 feet AGL
broken clouds at 10000 feet AGL
Weather: no significant weather forecast for this period
Text: TEMPO 2006/2014 VRB15G25KT 5000 -TSRA DU SCT007 BKN033CB
Forecast period: 0600 to 1400 UTC 20 March 2019
Forecast type: TEMPORARY: The following changes expected for less than half the time period
Winds: variable direction winds at 17 MPH (15 knots; 7.7 m/s)
gusting to 29 MPH (25 knots; 12.9 m/s)
Visibility: 3 miles (5 km)
Ceiling: 3300 feet AGL
Clouds: scattered clouds at 700 feet AGL
broken clouds at 3300 feet AGL
Weather: -TSRA DU  (light rain associated with thunderstorm(s), widespread dust)